Hartford, Connecticut
Traffic Map
Current Weather Conditions
Hartford, Connecticut
Overcast
Overcast
43°
Feels Like: 39°
Wind Chill: 39° Ceiling: 3100
Heat Index: 43° Visibility: 10mi
Dew Point: 31° Wind: 7mph
Humidity: 62% Direction: ° ()
Pressure: 29.73in Gusts: 0mph
Raw Report DataKHFD 272053Z VRB06KT 10SM OVC031 06/M01 A2973 RMK AO2 SLP067 T00611006 53006
Traffic Incident Summary
Active as of:
Severity:
Category:
InformationThere was an issue retrieving the traffic information for this location. Please try a different location or try again shortly.
Advertisements
Track Severe Weather on mobile